createdAt,value
2019-06-15T00:02:17.178Z,6.87
2019-06-15T00:04:45.893Z,6.47
2019-06-15T00:07:14.777Z,6.77
2019-06-15T00:09:43.500Z,6.77
2019-06-15T00:12:13.246Z,6.17
2019-06-15T00:14:42.126Z,6.13
2019-06-15T00:17:10.841Z,6.73
2019-06-15T00:19:39.558Z,6.47
2019-06-15T00:22:08.386Z,6.23
2019-06-15T00:24:37.094Z,6.57
2019-06-15T00:27:05.819Z,6.47
2019-06-15T00:29:34.685Z,6.40
2019-06-15T00:32:03.403Z,6.83
2019-06-15T00:34:32.123Z,7.30
2019-06-15T00:37:01.194Z,6.17
2019-06-15T00:39:29.921Z,6.43
2019-06-15T00:41:58.741Z,6.07
2019-06-15T00:44:27.512Z,6.13
2019-06-15T00:46:56.228Z,6.03
2019-06-15T00:49:24.952Z,5.60
2019-06-15T00:51:54.014Z,6.20
2019-06-15T00:54:22.737Z,5.80
2019-06-15T00:56:51.508Z,6.17
2019-06-15T00:59:20.387Z,6.27
2019-06-15T01:01:49.119Z,6.30
2019-06-15T01:04:17.842Z,5.93
2019-06-15T01:06:46.731Z,5.77
2019-06-15T01:09:15.459Z,10.27
2019-06-15T01:11:44.210Z,6.77
2019-06-15T01:14:12.957Z,7.10
2019-06-15T01:16:41.681Z,6.93
2019-06-15T01:19:10.392Z,7.47
2019-06-15T01:21:39.151Z,7.10
2019-06-15T01:24:07.870Z,8.60
2019-06-15T01:26:36.591Z,7.63
2019-06-15T01:29:05.473Z,7.67
2019-06-15T01:31:34.173Z,8.33
2019-06-15T01:34:02.897Z,8.33
2019-06-15T01:36:31.653Z,9.20
2019-06-15T01:39:00.374Z,8.70
2019-06-15T01:41:29.098Z,9.23
2019-06-15T01:43:57.866Z,9.07
2019-06-15T01:46:26.584Z,9.00
2019-06-15T01:48:55.311Z,8.83
2019-06-15T01:51:24.172Z,8.90
2019-06-15T01:53:52.900Z,8.30
2019-06-15T01:56:21.627Z,8.27
2019-06-15T01:58:50.441Z,9.30
2019-06-15T02:01:19.214Z,7.73
2019-06-15T02:03:47.999Z,8.33
2019-06-15T02:06:16.753Z,8.23
2019-06-15T02:08:45.478Z,8.53
2019-06-15T02:11:14.204Z,8.37
2019-06-15T02:13:43.072Z,8.10
2019-06-15T02:16:11.803Z,9.07
2019-06-15T02:18:40.537Z,8.97
2019-06-15T02:21:09.437Z,9.10
2019-06-15T02:23:38.202Z,10.03
2019-06-15T02:26:06.895Z,10.17
2019-06-15T02:28:35.742Z,9.60
2019-06-15T02:31:05.095Z,9.63
2019-06-15T02:33:33.838Z,10.00
2019-06-15T02:36:02.726Z,9.90
2019-06-15T02:38:31.464Z,10.33
2019-06-15T02:41:00.196Z,9.03
2019-06-15T02:43:29.102Z,10.20
2019-06-15T02:45:57.930Z,9.27
2019-06-15T02:48:26.674Z,10.00
2019-06-15T02:50:55.530Z,9.43
2019-06-15T02:53:24.330Z,8.67
2019-06-15T02:55:53.075Z,9.90
2019-06-15T02:58:21.931Z,9.20
2019-06-15T03:00:56.479Z,9.00
2019-06-15T03:03:25.368Z,9.87
2019-06-15T03:05:54.497Z,9.40
2019-06-15T03:08:23.726Z,9.90
2019-06-15T03:10:52.796Z,10.30
2019-06-15T03:13:24.156Z,9.10
2019-06-15T03:15:52.883Z,9.93
2019-06-15T03:18:21.790Z,11.60
2019-06-15T03:20:50.529Z,10.37
2019-06-15T03:23:19.265Z,10.07
2019-06-15T03:25:48.153Z,11.03
2019-06-15T03:28:16.881Z,10.40
2019-06-15T03:30:45.609Z,11.27
2019-06-15T03:33:14.567Z,13.57
2019-06-15T03:35:43.305Z,19.20
2019-06-15T03:38:12.030Z,13.80
2019-06-15T03:40:42.413Z,11.30
2019-06-15T03:43:11.243Z,10.07
2019-06-15T03:45:39.973Z,10.67
2019-06-15T03:48:08.772Z,10.40
2019-06-15T03:50:37.496Z,10.40
2019-06-15T03:53:06.222Z,10.53
2019-06-15T03:55:35.039Z,9.67
2019-06-15T03:58:03.759Z,9.90
2019-06-15T04:00:44.533Z,10.70
2019-06-15T04:03:13.562Z,9.90
2019-06-15T04:05:43.589Z,9.73
2019-06-15T04:08:12.573Z,9.70
2019-06-15T04:10:41.343Z,10.67
2019-06-15T04:13:10.110Z,10.47
2019-06-15T04:15:38.995Z,10.77
2019-06-15T04:18:07.731Z,11.57
2019-06-15T04:20:36.457Z,11.60
2019-06-15T04:23:06.357Z,11.93
2019-06-15T04:25:35.093Z,10.70
2019-06-15T04:28:03.818Z,10.87
2019-06-15T04:30:32.591Z,10.00
2019-06-15T04:33:02.490Z,11.60
2019-06-15T04:35:31.222Z,11.50
2019-06-15T04:38:00.023Z,11.97
2019-06-15T04:40:28.752Z,10.87
2019-06-15T04:42:57.479Z,11.23
2019-06-15T04:45:26.249Z,11.10
2019-06-15T04:47:54.978Z,11.60
2019-06-15T04:50:23.715Z,11.70
2019-06-15T04:52:52.479Z,10.70
2019-06-15T04:55:21.217Z,10.90
2019-06-15T04:57:50.014Z,10.67
2019-06-15T05:00:18.930Z,10.43
2019-06-15T05:02:47.966Z,11.03
2019-06-15T05:05:16.843Z,9.67
2019-06-15T05:07:46.404Z,9.17
2019-06-15T05:10:15.229Z,10.43
2019-06-15T05:12:43.956Z,9.33
2019-06-15T05:15:13.024Z,9.10
2019-06-15T05:17:41.752Z,8.70
2019-06-15T05:20:10.980Z,11.13
2019-06-15T05:22:39.870Z,8.10
2019-06-15T05:25:08.792Z,8.17
2019-06-15T05:27:37.554Z,8.87
2019-06-15T05:30:09.424Z,8.23
2019-06-15T05:32:38.159Z,8.73
2019-06-15T05:35:10.347Z,9.03
2019-06-15T05:37:39.142Z,9.13
2019-06-15T05:40:08.165Z,9.77
2019-06-15T05:42:36.895Z,9.13
2019-06-15T05:45:09.158Z,9.40
2019-06-15T05:47:37.867Z,8.87
2019-06-15T05:50:07.389Z,8.90
2019-06-15T05:52:36.269Z,9.47
2019-06-15T05:55:09.319Z,10.83
2019-06-15T05:57:38.043Z,9.40
2019-06-15T06:00:08.886Z,9.80
2019-06-15T06:02:37.615Z,10.37
2019-06-15T06:05:07.037Z,10.67
2019-06-15T06:07:36.148Z,11.47
2019-06-15T06:10:10.634Z,10.43
2019-06-15T06:12:37.889Z,9.67
2019-06-15T06:15:10.217Z,9.80
2019-06-15T06:17:41.544Z,9.40
2019-06-15T06:20:10.557Z,10.00
2019-06-15T06:22:39.429Z,10.37
2019-06-15T06:25:09.745Z,9.60
2019-06-15T06:27:38.530Z,9.30
2019-06-15T06:30:11.935Z,9.90
2019-06-15T06:32:41.988Z,10.23
2019-06-15T06:35:11.105Z,12.17
2019-06-15T06:37:39.974Z,23.13
2019-06-15T06:40:13.499Z,14.63
2019-06-15T06:42:42.302Z,11.97
2019-06-15T06:45:12.033Z,14.37
2019-06-15T06:47:41.274Z,12.13
2019-06-15T06:50:11.024Z,12.83
2019-06-15T06:52:39.920Z,9.63
2019-06-15T06:55:09.565Z,8.90
2019-06-15T06:57:51.376Z,11.13
2019-06-15T07:00:12.553Z,9.47
2019-06-15T07:02:42.630Z,8.60
2019-06-15T07:05:12.342Z,7.67
2019-06-15T07:07:41.232Z,8.13
2019-06-15T07:10:13.866Z,7.90
2019-06-15T07:12:42.672Z,10.07
2019-06-15T07:15:11.942Z,7.53
2019-06-15T07:17:40.760Z,6.97
2019-06-15T07:20:11.156Z,7.13
2019-06-15T07:22:40.205Z,8.23
2019-06-15T07:25:09.801Z,6.87
2019-06-15T07:27:38.627Z,6.23
2019-06-15T07:30:10.260Z,6.13
2019-06-15T07:32:39.366Z,6.35
2019-06-15T07:35:09.667Z,5.67
2019-06-15T07:37:38.847Z,5.08
2019-06-15T07:40:08.771Z,7.80
2019-06-15T07:42:39.421Z,5.45
2019-06-15T07:45:08.575Z,4.20
2019-06-15T07:47:37.413Z,4.72
2019-06-15T07:50:07.850Z,15.38
2019-06-15T07:52:36.901Z,12.53
2019-06-15T07:55:09.104Z,15.30
2019-06-15T07:57:37.929Z,9.53
2019-06-15T08:00:09.113Z,8.33
2019-06-15T08:02:37.993Z,11.33
2019-06-15T08:05:08.570Z,9.75
2019-06-15T08:07:37.428Z,6.00
2019-06-15T08:10:11.945Z,6.22
2019-06-15T08:12:40.854Z,5.03
2019-06-15T08:15:11.582Z,8.60
2019-06-15T08:17:40.385Z,5.47
2019-06-15T08:20:13.053Z,8.05
2019-06-15T08:22:41.934Z,5.03
2019-06-15T08:25:11.424Z,6.53
2019-06-15T08:27:40.285Z,6.30
2019-06-15T08:30:10.604Z,4.45
2019-06-15T08:32:39.427Z,3.12
2019-06-15T08:35:08.538Z,3.17
2019-06-15T08:37:37.411Z,2.87
2019-06-15T08:40:08.070Z,2.87
2019-06-15T08:42:36.872Z,2.90
2019-06-15T08:45:09.076Z,2.90
2019-06-15T08:47:37.883Z,2.98
2019-06-15T08:50:06.996Z,2.60
2019-06-15T08:52:35.983Z,2.87
2019-06-15T08:55:06.706Z,2.65
2019-06-15T08:57:35.434Z,2.62
2019-06-15T09:00:07.240Z,2.95
2019-06-15T09:02:36.023Z,2.70
2019-06-15T09:05:08.904Z,2.77
2019-06-15T09:07:37.773Z,2.80
2019-06-15T09:10:08.570Z,2.65
2019-06-15T09:12:37.299Z,2.60
2019-06-15T09:15:08.423Z,2.40
2019-06-15T09:17:37.238Z,2.87
2019-06-15T09:20:10.557Z,2.87
2019-06-15T09:22:39.396Z,2.47
2019-06-15T09:25:08.613Z,2.50
2019-06-15T09:27:37.434Z,3.00
2019-06-15T09:30:08.906Z,2.72
2019-06-15T09:32:37.652Z,2.20
2019-06-15T09:35:09.343Z,2.40
2019-06-15T09:37:38.923Z,2.35
2019-06-15T09:40:08.551Z,2.33
2019-06-15T09:42:37.279Z,2.35
2019-06-15T09:45:07.662Z,2.40
2019-06-15T09:47:36.370Z,2.20
2019-06-15T09:50:06.199Z,2.40
2019-06-15T09:52:35.078Z,2.20
2019-06-15T09:55:04.899Z,2.50
2019-06-15T09:57:34.425Z,2.70
2019-06-15T10:00:04.831Z,2.35
2019-06-15T10:02:33.559Z,2.60
2019-06-15T10:05:02.284Z,2.70
2019-06-15T10:07:31.105Z,2.20
2019-06-15T10:09:59.825Z,2.37
2019-06-15T10:12:28.548Z,2.20
2019-06-15T10:14:58.926Z,2.40
2019-06-15T10:17:27.763Z,2.72
2019-06-15T10:19:56.492Z,2.40
2019-06-15T10:22:25.378Z,2.80
2019-06-15T10:24:54.104Z,2.77
2019-06-15T10:27:22.819Z,2.10
2019-06-15T10:29:51.683Z,2.15
2019-06-15T10:32:20.426Z,2.45
2019-06-15T10:34:49.147Z,3.02
2019-06-15T10:37:18.226Z,1.95
2019-06-15T10:39:47.018Z,2.52
2019-06-15T10:42:15.725Z,2.40
2019-06-15T10:44:44.619Z,2.60
2019-06-15T10:47:13.330Z,2.52
2019-06-15T10:49:42.053Z,2.10
2019-06-15T10:52:11.594Z,2.35
2019-06-15T10:54:40.323Z,2.65
2019-06-15T10:57:09.039Z,2.30
2019-06-15T10:59:37.931Z,2.30
2019-06-15T11:02:07.602Z,2.87
2019-06-15T11:04:36.606Z,2.12
2019-06-15T11:07:05.879Z,2.20
2019-06-15T11:09:34.599Z,2.27
2019-06-15T11:12:03.457Z,2.40
2019-06-15T11:14:32.504Z,2.50
2019-06-15T11:17:01.334Z,3.00
2019-06-15T11:19:30.132Z,2.45
2019-06-15T11:21:58.986Z,2.98
2019-06-15T11:24:27.710Z,2.70
2019-06-15T11:26:56.435Z,2.60
2019-06-15T11:29:25.286Z,2.37
2019-06-15T11:31:54.001Z,2.62
2019-06-15T11:34:22.735Z,2.45
2019-06-15T11:36:51.803Z,3.02
2019-06-15T11:39:20.507Z,2.85
2019-06-15T11:41:49.276Z,2.60
2019-06-15T11:44:18.185Z,2.72
2019-06-15T11:46:46.928Z,2.50
2019-06-15T11:49:15.659Z,2.80
2019-06-15T11:51:45.019Z,2.40
2019-06-15T11:54:13.742Z,2.72
2019-06-15T11:56:42.457Z,2.55
2019-06-15T11:59:11.350Z,2.45
2019-06-15T12:01:41.505Z,2.50
2019-06-15T12:04:10.332Z,2.35
2019-06-15T12:06:40.669Z,2.50
2019-06-15T12:09:09.702Z,2.62
2019-06-15T12:11:38.413Z,2.90
2019-06-15T12:14:07.230Z,2.90
2019-06-15T12:16:35.956Z,2.55
2019-06-15T12:19:04.681Z,2.62
2019-06-15T12:21:33.632Z,2.50
2019-06-15T12:24:02.370Z,2.62
2019-06-15T12:26:31.075Z,2.40
2019-06-15T12:29:00.211Z,2.40
2019-06-15T12:31:30.386Z,3.00
2019-06-15T12:33:59.121Z,3.10
2019-06-15T12:36:27.892Z,2.80
2019-06-15T12:38:56.610Z,2.75
2019-06-15T12:41:25.328Z,2.98
2019-06-15T12:43:54.191Z,2.62
2019-06-15T12:46:22.915Z,2.90
2019-06-15T12:48:51.634Z,2.85
2019-06-15T12:51:20.429Z,2.95
2019-06-15T12:53:49.160Z,3.17
2019-06-15T12:56:17.892Z,3.00
2019-06-15T12:58:46.761Z,2.60
2019-06-15T13:01:16.397Z,2.55
2019-06-15T13:03:45.174Z,2.52
2019-06-15T13:06:14.069Z,2.98
2019-06-15T13:08:42.793Z,2.50
2019-06-15T13:11:11.522Z,2.37
2019-06-15T13:13:41.838Z,2.70
2019-06-15T13:16:11.934Z,2.77
2019-06-15T13:18:40.654Z,2.55
2019-06-15T13:21:09.432Z,3.08
2019-06-15T13:23:38.749Z,2.70
2019-06-15T13:26:07.600Z,2.77
2019-06-15T13:28:36.830Z,2.65
2019-06-15T13:31:17.669Z,2.60
2019-06-15T13:33:36.004Z,3.08
2019-06-15T13:36:04.782Z,2.40
2019-06-15T13:38:33.510Z,2.60
2019-06-15T13:41:02.230Z,2.67
2019-06-15T13:43:31.019Z,2.55
2019-06-15T13:46:00.340Z,2.60
2019-06-15T13:48:29.060Z,2.22
2019-06-15T13:50:58.014Z,2.35
2019-06-15T13:53:27.858Z,3.35
2019-06-15T13:55:56.593Z,2.37
2019-06-15T13:58:25.512Z,2.60
2019-06-15T14:00:54.231Z,2.20
2019-06-15T14:03:23.029Z,2.60
2019-06-15T14:05:51.996Z,2.70
2019-06-15T14:08:20.724Z,2.77
2019-06-15T14:10:49.444Z,2.65
2019-06-15T14:13:18.432Z,2.77
2019-06-15T14:15:47.945Z,2.22
2019-06-15T14:18:16.663Z,2.77
2019-06-15T14:20:45.472Z,2.70
2019-06-15T14:23:14.198Z,2.25
2019-06-15T14:25:42.946Z,2.37
2019-06-15T14:28:11.824Z,2.52
2019-06-15T14:30:40.554Z,2.62
2019-06-15T14:33:09.272Z,2.33
2019-06-15T14:35:38.058Z,2.62
2019-06-15T14:38:06.775Z,2.60
2019-06-15T14:40:35.495Z,2.47
2019-06-15T14:43:04.387Z,2.75
2019-06-15T14:45:33.111Z,2.60
2019-06-15T14:48:01.838Z,2.20
2019-06-15T14:50:30.718Z,2.40
2019-06-15T14:52:59.455Z,2.62
2019-06-15T14:55:28.166Z,2.47
2019-06-15T14:57:59.811Z,2.62
2019-06-15T15:00:28.517Z,2.60
2019-06-15T15:02:57.257Z,2.72
2019-06-15T15:05:27.588Z,2.90
2019-06-15T15:07:57.876Z,2.70
2019-06-15T15:10:27.196Z,2.30
2019-06-15T15:12:56.712Z,2.70
2019-06-15T15:15:25.539Z,2.83
2019-06-15T15:17:54.271Z,2.50
2019-06-15T15:20:23.168Z,2.67
2019-06-15T15:22:51.923Z,3.08
2019-06-15T15:25:20.659Z,2.58
2019-06-15T15:27:49.743Z,2.47
2019-06-15T15:30:27.419Z,2.95
2019-06-15T15:32:57.140Z,2.90
2019-06-15T15:35:26.911Z,2.67
2019-06-15T15:37:56.960Z,2.87
2019-06-15T15:40:27.488Z,2.80
2019-06-15T15:42:56.393Z,2.92
2019-06-15T15:45:26.291Z,2.80
2019-06-15T15:47:55.632Z,2.55
2019-06-15T15:50:26.300Z,2.90
2019-06-15T15:52:56.774Z,3.00
2019-06-15T15:55:26.700Z,3.50
2019-06-15T15:57:56.296Z,3.00
2019-06-15T16:00:34.067Z,2.92
2019-06-15T16:03:06.938Z,3.05
2019-06-15T16:05:37.100Z,2.90
2019-06-15T16:08:06.628Z,2.80
2019-06-15T16:10:37.619Z,3.10
2019-06-15T16:13:06.693Z,4.00
2019-06-15T16:15:37.264Z,3.40
2019-06-15T16:18:06.935Z,3.00
2019-06-15T16:20:37.008Z,3.10
2019-06-15T16:23:07.895Z,3.40
2019-06-15T16:25:37.343Z,3.20
2019-06-15T16:28:07.122Z,3.37
2019-06-15T16:31:00.560Z,4.05
2019-06-15T16:33:07.954Z,2.90
2019-06-15T16:35:37.000Z,3.05
2019-06-15T16:38:07.143Z,2.98
2019-06-15T16:40:40.859Z,3.60
2019-06-15T16:43:10.035Z,3.53
2019-06-15T16:45:39.764Z,3.50
2019-06-15T16:48:08.510Z,3.40
2019-06-15T16:50:37.229Z,4.47
2019-06-15T16:53:06.943Z,3.60
2019-06-15T16:55:36.984Z,3.08
2019-06-15T16:58:07.491Z,3.70
2019-06-15T17:00:37.274Z,3.30
2019-06-15T17:03:19.932Z,3.40
2019-06-15T17:05:38.074Z,3.73
2019-06-15T17:08:07.270Z,3.53
2019-06-15T17:10:43.915Z,3.40
2019-06-15T17:13:16.072Z,3.67
2019-06-15T17:15:46.851Z,4.17
2019-06-15T17:18:14.943Z,3.40
2019-06-15T17:20:51.271Z,3.43
2019-06-15T17:23:20.250Z,4.10
2019-06-15T17:25:49.133Z,5.73
2019-06-15T17:28:18.055Z,4.10
2019-06-15T17:30:47.102Z,4.00
2019-06-15T17:33:16.512Z,3.40
2019-06-15T17:35:56.152Z,4.07
2019-06-15T17:38:16.907Z,3.53
2019-06-15T17:40:46.078Z,3.80
2019-06-15T17:43:16.162Z,3.80
2019-06-15T17:45:46.884Z,3.90
2019-06-15T17:48:17.406Z,3.63
2019-06-15T17:50:47.728Z,4.00
2019-06-15T17:53:17.059Z,4.83
2019-06-15T17:55:46.674Z,4.33
2019-06-15T17:58:16.948Z,4.27
2019-06-15T18:00:51.732Z,3.83
2019-06-15T18:03:20.601Z,4.03
2019-06-15T18:05:49.319Z,4.60
2019-06-15T18:08:18.041Z,4.57
2019-06-15T18:10:47.838Z,4.73
2019-06-15T18:13:17.296Z,4.67
2019-06-15T18:15:47.569Z,4.80
2019-06-15T18:18:17.238Z,4.47
2019-06-15T18:20:46.281Z,3.97
2019-06-15T18:23:17.383Z,4.50
2019-06-15T18:25:46.832Z,4.90
2019-06-15T18:28:17.452Z,4.90
2019-06-15T18:30:46.973Z,4.60
2019-06-15T18:33:16.629Z,4.13
2019-06-15T18:35:47.517Z,4.70
2019-06-15T18:38:15.906Z,3.97
2019-06-15T18:40:44.768Z,4.40
2019-06-15T18:43:13.508Z,4.13
2019-06-15T18:45:43.059Z,4.70
2019-06-15T18:48:11.940Z,4.13
2019-06-15T18:50:42.235Z,4.73
2019-06-15T18:53:11.185Z,5.23
2019-06-15T18:55:39.976Z,5.83
2019-06-15T18:58:08.707Z,5.53
2019-06-15T19:00:37.424Z,5.30
2019-06-15T19:03:07.051Z,5.37
2019-06-15T19:05:37.191Z,4.97
2019-06-15T19:08:06.954Z,5.57
2019-06-15T19:10:37.092Z,7.17
2019-06-15T19:13:07.506Z,5.57
2019-06-15T19:15:37.488Z,5.33
2019-06-15T19:18:07.272Z,5.67
2019-06-15T19:20:37.189Z,4.70
2019-06-15T19:23:07.015Z,5.10
2019-06-15T19:25:36.733Z,5.40
2019-06-15T19:28:05.823Z,4.73
2019-06-15T19:30:40.335Z,5.50
2019-06-15T19:33:09.269Z,4.80
2019-06-15T19:35:38.491Z,5.17
2019-06-15T19:38:10.591Z,4.97
2019-06-15T19:40:39.755Z,4.90
2019-06-15T19:43:08.481Z,4.87
2019-06-15T19:45:38.641Z,4.43
2019-06-15T19:48:07.488Z,4.80
2019-06-15T19:50:36.534Z,4.50
2019-06-15T19:53:07.025Z,4.93
2019-06-15T19:55:36.479Z,4.30
2019-06-15T19:58:07.207Z,4.27
2019-06-15T20:00:36.949Z,4.00
2019-06-15T20:03:06.978Z,4.20
2019-06-15T20:05:37.045Z,4.40
2019-06-15T20:08:07.038Z,4.50
2019-06-15T20:10:37.111Z,5.27
2019-06-15T20:13:07.135Z,4.43
2019-06-15T20:15:37.803Z,4.10
2019-06-15T20:18:07.127Z,3.43
2019-06-15T20:20:37.274Z,3.60
2019-06-15T20:23:07.179Z,3.30
2019-06-15T20:25:37.918Z,3.30
2019-06-15T20:28:07.303Z,3.10
2019-06-15T20:30:37.117Z,2.90
2019-06-15T20:33:08.110Z,3.67
2019-06-15T20:35:36.923Z,3.67
2019-06-15T20:38:05.647Z,3.97
2019-06-15T20:40:36.457Z,4.87
2019-06-15T20:43:07.368Z,4.17
2019-06-15T20:45:37.144Z,4.30
2019-06-15T20:48:07.350Z,4.23
2019-06-15T20:50:36.420Z,4.37
2019-06-15T20:53:06.058Z,4.87
2019-06-15T20:55:37.337Z,4.50
2019-06-15T20:58:06.899Z,4.50
2019-06-15T21:00:36.779Z,4.30
2019-06-15T21:03:07.321Z,4.50
2019-06-15T21:05:41.552Z,4.97
2019-06-15T21:08:07.598Z,4.97
2019-06-15T21:10:38.176Z,4.77
2019-06-15T21:13:06.897Z,4.97
2019-06-15T21:15:38.526Z,4.97
2019-06-15T21:18:07.487Z,5.30
2019-06-15T21:20:37.232Z,4.80
2019-06-15T21:23:06.619Z,5.13
2019-06-15T21:25:35.710Z,4.83
2019-06-15T21:28:06.667Z,4.57
2019-06-15T21:30:36.863Z,4.47
2019-06-15T21:33:07.030Z,4.80
2019-06-15T21:35:48.180Z,6.30
2019-06-15T21:38:06.791Z,4.87
2019-06-15T21:40:37.015Z,4.90
2019-06-15T21:43:07.106Z,5.00
2019-06-15T21:45:37.010Z,5.20
2019-06-15T21:48:07.000Z,5.80
2019-06-15T21:50:36.311Z,5.23
2019-06-15T21:53:06.872Z,5.13
2019-06-15T21:55:36.375Z,5.30
2019-06-15T21:58:07.507Z,5.30
2019-06-15T22:01:12.217Z,5.23
2019-06-15T22:03:42.306Z,5.77
2019-06-15T22:06:11.017Z,5.03
2019-06-15T22:08:41.363Z,6.13
2019-06-15T22:11:11.532Z,5.20
2019-06-15T22:13:41.755Z,5.80
2019-06-15T22:16:13.948Z,5.00
2019-06-15T22:18:42.681Z,5.83
2019-06-15T22:21:11.396Z,6.20
2019-06-15T22:23:40.183Z,5.97
2019-06-15T22:26:08.909Z,6.00
2019-06-15T22:28:38.655Z,5.53
2019-06-15T22:31:07.544Z,5.27
2019-06-15T22:33:36.767Z,5.80
2019-06-15T22:36:20.764Z,5.43
2019-06-15T22:38:36.941Z,5.50
2019-06-15T22:41:06.144Z,5.80
2019-06-15T22:43:36.423Z,5.80
2019-06-15T22:46:07.526Z,6.33
2019-06-15T22:48:36.266Z,6.00
2019-06-15T22:51:06.241Z,6.60
2019-06-15T22:53:36.444Z,6.13
2019-06-15T22:56:06.553Z,6.20
2019-06-15T22:58:35.703Z,6.47
2019-06-15T23:01:06.115Z,6.40
2019-06-15T23:03:35.098Z,7.40
2019-06-15T23:06:03.825Z,6.93
2019-06-15T23:08:36.165Z,6.37
2019-06-15T23:11:06.521Z,6.60
2019-06-15T23:13:36.675Z,6.57
2019-06-15T23:16:07.746Z,5.83
2019-06-15T23:18:36.466Z,6.03
2019-06-15T23:21:06.381Z,5.03
2019-06-15T23:23:36.134Z,4.80
2019-06-15T23:26:06.653Z,4.93
2019-06-15T23:28:35.910Z,3.77
2019-06-15T23:31:07.784Z,3.57
2019-06-15T23:33:36.539Z,3.90
2019-06-15T23:36:06.824Z,3.30
2019-06-15T23:38:37.781Z,4.27
2019-06-15T23:41:07.007Z,3.67
2019-06-15T23:43:36.276Z,3.63
2019-06-15T23:46:07.012Z,3.70
2019-06-15T23:48:36.421Z,3.40
2019-06-15T23:51:06.799Z,3.30
2019-06-15T23:53:36.800Z,3.70
2019-06-15T23:56:06.467Z,3.20
2019-06-15T23:58:37.011Z,3.23
